sensor_id;sensor_type;location;lat;lon;timestamp;pressure;altitude;pressure_sealevel;temperature;humidity
12781;BME280;6454;43.304;24.344;2022-07-29T00:00:19;100227.84;;;24.13;72.87
12781;BME280;6454;43.304;24.344;2022-07-29T00:02:45;100228.97;;;24.09;73.25
12781;BME280;6454;43.304;24.344;2022-07-29T00:05:12;100222.91;;;24.03;73.27
12781;BME280;6454;43.304;24.344;2022-07-29T00:07:39;100228.84;;;24.02;73.50
12781;BME280;6454;43.304;24.344;2022-07-29T00:10:08;100230.72;;;23.94;73.55
12781;BME280;6454;43.304;24.344;2022-07-29T00:12:35;100228.25;;;23.89;74.13
12781;BME280;6454;43.304;24.344;2022-07-29T00:15:03;100194.28;;;23.66;73.85
12781;BME280;6454;43.304;24.344;2022-07-29T00:17:30;100233.69;;;23.82;73.88
12781;BME280;6454;43.304;24.344;2022-07-29T00:19:59;100230.03;;;23.75;74.25
12781;BME280;6454;43.304;24.344;2022-07-29T00:22:26;100234.75;;;23.74;74.14
12781;BME280;6454;43.304;24.344;2022-07-29T00:24:53;100240.69;;;23.73;73.95
12781;BME280;6454;43.304;24.344;2022-07-29T00:27:22;100231.97;;;23.70;74.20
12781;BME280;6454;43.304;24.344;2022-07-29T00:29:48;100231.47;;;23.65;74.41
12781;BME280;6454;43.304;24.344;2022-07-29T00:32:15;100230.16;;;23.59;74.50
12781;BME280;6454;43.304;24.344;2022-07-29T00:34:42;100231.66;;;23.53;74.67
12781;BME280;6454;43.304;24.344;2022-07-29T00:37:27;100206.06;;;23.37;74.37
12781;BME280;6454;43.304;24.344;2022-07-29T00:39:54;100230.91;;;23.56;74.12
12781;BME280;6454;43.304;24.344;2022-07-29T00:42:22;100233.22;;;23.50;74.32
12781;BME280;6454;43.304;24.344;2022-07-29T00:44:49;100236.34;;;23.49;74.22
12781;BME280;6454;43.304;24.344;2022-07-29T00:47:16;100231.53;;;23.46;74.32
12781;BME280;6454;43.304;24.344;2022-07-29T00:49:43;100241.44;;;23.47;74.43
12781;BME280;6454;43.304;24.344;2022-07-29T00:52:11;100250.19;;;23.49;74.62
12781;BME280;6454;43.304;24.344;2022-07-29T00:54:39;100212.00;;;23.16;74.65
12781;BME280;6454;43.304;24.344;2022-07-29T00:57:07;100246.56;;;23.45;74.90
12781;BME280;6454;43.304;24.344;2022-07-29T00:59:35;100251.19;;;23.37;75.38
12781;BME280;6454;43.304;24.344;2022-07-29T01:02:02;100239.56;;;23.32;75.18
12781;BME280;6454;43.304;24.344;2022-07-29T01:04:30;100233.91;;;23.25;75.14
12781;BME280;6454;43.304;24.344;2022-07-29T01:06:58;100249.84;;;23.31;75.41
12781;BME280;6454;43.304;24.344;2022-07-29T01:09:26;100242.75;;;23.34;75.06
12781;BME280;6454;43.304;24.344;2022-07-29T01:11:53;100245.53;;;23.34;75.01
12781;BME280;6454;43.304;24.344;2022-07-29T01:14:21;100241.53;;;23.31;75.00
12781;BME280;6454;43.304;24.344;2022-07-29T01:16:52;100249.41;;;23.29;74.82
12781;BME280;6454;43.304;24.344;2022-07-29T01:19:49;100246.66;;;23.29;75.12
12781;BME280;6454;43.304;24.344;2022-07-29T01:22:26;100250.53;;;23.25;75.19
12781;BME280;6454;43.304;24.344;2022-07-29T01:25:12;100250.72;;;23.13;75.55
12781;BME280;6454;43.304;24.344;2022-07-29T01:27:56;100247.22;;;22.96;75.77
12781;BME280;6454;43.304;24.344;2022-07-29T01:30:30;100269.38;;;22.96;75.96
12781;BME280;6454;43.304;24.344;2022-07-29T01:33:00;100270.97;;;22.97;76.24
12781;BME280;6454;43.304;24.344;2022-07-29T01:35:32;100244.81;;;22.72;76.42
12781;BME280;6454;43.304;24.344;2022-07-29T01:38:05;100267.56;;;22.85;76.53
12781;BME280;6454;43.304;24.344;2022-07-29T01:40:39;100266.84;;;22.88;76.86
12781;BME280;6454;43.304;24.344;2022-07-29T01:43:11;100271.88;;;22.82;76.70
12781;BME280;6454;43.304;24.344;2022-07-29T01:45:43;100217.56;;;22.55;76.58
12781;BME280;6454;43.304;24.344;2022-07-29T01:48:14;100267.50;;;22.81;76.62
12781;BME280;6454;43.304;24.344;2022-07-29T01:50:46;100265.03;;;22.76;76.43
12781;BME280;6454;43.304;24.344;2022-07-29T01:53:19;100268.53;;;22.73;76.32
12781;BME280;6454;43.304;24.344;2022-07-29T01:55:48;100274.78;;;22.70;76.76
12781;BME280;6454;43.304;24.344;2022-07-29T01:58:18;100265.59;;;22.66;76.73
12781;BME280;6454;43.304;24.344;2022-07-29T02:00:48;100268.38;;;22.66;76.81
12781;BME280;6454;43.304;24.344;2022-07-29T02:03:17;100257.13;;;22.59;77.08
12781;BME280;6454;43.304;24.344;2022-07-29T02:05:46;100264.13;;;22.53;77.11
12781;BME280;6454;43.304;24.344;2022-07-29T02:08:15;100255.75;;;22.50;77.59
12781;BME280;6454;43.304;24.344;2022-07-29T02:10:45;100254.09;;;22.45;77.49
12781;BME280;6454;43.304;24.344;2022-07-29T02:13:12;100245.56;;;22.34;77.67
12781;BME280;6454;43.304;24.344;2022-07-29T02:15:41;100254.81;;;22.42;77.37
12781;BME280;6454;43.304;24.344;2022-07-29T02:18:14;100259.47;;;22.38;77.77
12781;BME280;6454;43.304;24.344;2022-07-29T02:20:44;100261.53;;;22.41;77.48
12781;BME280;6454;43.304;24.344;2022-07-29T02:23:14;100268.91;;;22.37;77.90
12781;BME280;6454;43.304;24.344;2022-07-29T02:25:45;100270.81;;;22.33;78.26
12781;BME280;6454;43.304;24.344;2022-07-29T02:28:16;100264.09;;;22.34;78.32
12781;BME280;6454;43.304;24.344;2022-07-29T02:30:44;100263.25;;;22.30;78.11
12781;BME280;6454;43.304;24.344;2022-07-29T02:33:15;100258.88;;;22.29;78.11
12781;BME280;6454;43.304;24.344;2022-07-29T02:35:45;100260.09;;;22.31;78.34
12781;BME280;6454;43.304;24.344;2022-07-29T02:38:15;100264.09;;;22.34;78.41
12781;BME280;6454;43.304;24.344;2022-07-29T02:41:01;100263.75;;;22.35;79.12
12781;BME280;6454;43.304;24.344;2022-07-29T02:43:30;100248.84;;;22.21;79.14
12781;BME280;6454;43.304;24.344;2022-07-29T02:46:00;100264.84;;;22.31;79.47
12781;BME280;6454;43.304;24.344;2022-07-29T02:48:36;100256.56;;;22.31;79.09
12781;BME280;6454;43.304;24.344;2022-07-29T02:51:08;100255.03;;;22.33;79.12
12781;BME280;6454;43.304;24.344;2022-07-29T02:53:38;100257.06;;;22.36;79.61
12781;BME280;6454;43.304;24.344;2022-07-29T02:56:11;100248.34;;;22.34;79.47
12781;BME280;6454;43.304;24.344;2022-07-29T02:58:42;100236.09;;;22.16;79.69
12781;BME280;6454;43.304;24.344;2022-07-29T03:01:14;100265.56;;;22.28;80.19
12781;BME280;6454;43.304;24.344;2022-07-29T03:03:45;100265.13;;;22.26;80.34
12781;BME280;6454;43.304;24.344;2022-07-29T03:06:14;100264.97;;;22.19;80.80
12781;BME280;6454;43.304;24.344;2022-07-29T03:08:42;100264.97;;;22.19;80.57
12781;BME280;6454;43.304;24.344;2022-07-29T03:11:11;100267.97;;;22.29;80.54
12781;BME280;6454;43.304;24.344;2022-07-29T03:13:39;100267.53;;;22.27;80.40
12781;BME280;6454;43.304;24.344;2022-07-29T03:16:06;100265.63;;;22.31;80.51
12781;BME280;6454;43.304;24.344;2022-07-29T03:18:36;100261.28;;;22.30;80.18
12781;BME280;6454;43.304;24.344;2022-07-29T03:21:05;100271.00;;;22.24;81.11
12781;BME280;6454;43.304;24.344;2022-07-29T03:23:32;100273.56;;;22.33;80.63
12781;BME280;6454;43.304;24.344;2022-07-29T03:25:59;100270.00;;;22.32;81.01
12781;BME280;6454;43.304;24.344;2022-07-29T03:28:26;100279.97;;;22.37;80.89
12781;BME280;6454;43.304;24.344;2022-07-29T03:30:53;100272.50;;;22.37;80.93
12781;BME280;6454;43.304;24.344;2022-07-29T03:33:20;100269.28;;;22.35;81.60
12781;BME280;6454;43.304;24.344;2022-07-29T03:35:47;100276.88;;;22.38;81.29
12781;BME280;6454;43.304;24.344;2022-07-29T03:38:16;100279.69;;;22.42;81.53
12781;BME280;6454;43.304;24.344;2022-07-29T03:40:48;100274.59;;;22.44;81.46
12781;BME280;6454;43.304;24.344;2022-07-29T03:43:17;100263.91;;;22.42;81.57
12781;BME280;6454;43.304;24.344;2022-07-29T03:45:47;100267.19;;;22.48;81.69
12781;BME280;6454;43.304;24.344;2022-07-29T03:48:17;100272.50;;;22.57;81.88
12781;BME280;6454;43.304;24.344;2022-07-29T03:50:46;100275.44;;;22.64;82.09
12781;BME280;6454;43.304;24.344;2022-07-29T03:53:13;100280.75;;;22.72;82.34
12781;BME280;6454;43.304;24.344;2022-07-29T03:55:44;100272.28;;;22.84;81.67
12781;BME280;6454;43.304;24.344;2022-07-29T03:58:12;100280.81;;;22.95;81.61
12781;BME280;6454;43.304;24.344;2022-07-29T04:00:40;100279.41;;;23.04;81.36
12781;BME280;6454;43.304;24.344;2022-07-29T04:03:08;100268.78;;;23.06;80.97
12781;BME280;6454;43.304;24.344;2022-07-29T04:05:35;100271.50;;;23.26;80.66
12781;BME280;6454;43.304;24.344;2022-07-29T04:08:02;100281.25;;;23.39;79.76
12781;BME280;6454;43.304;24.344;2022-07-29T04:10:29;100276.41;;;23.55;79.42
12781;BME280;6454;43.304;24.344;2022-07-29T04:12:58;100287.97;;;23.60;79.03
12781;BME280;6454;43.304;24.344;2022-07-29T04:15:25;100255.50;;;23.61;78.61
12781;BME280;6454;43.304;24.344;2022-07-29T04:17:54;100278.88;;;23.86;78.38
12781;BME280;6454;43.304;24.344;2022-07-29T04:20:21;100275.47;;;23.96;77.72
12781;BME280;6454;43.304;24.344;2022-07-29T04:22:47;100262.41;;;23.97;76.91
12781;BME280;6454;43.304;24.344;2022-07-29T04:25:14;100278.59;;;24.17;75.94
12781;BME280;6454;43.304;24.344;2022-07-29T04:27:41;100277.53;;;24.25;75.54
12781;BME280;6454;43.304;24.344;2022-07-29T04:30:23;100281.22;;;24.37;75.34
12781;BME280;6454;43.304;24.344;2022-07-29T04:32:50;100278.13;;;24.42;75.44
12781;BME280;6454;43.304;24.344;2022-07-29T04:35:17;100267.03;;;24.42;75.08
12781;BME280;6454;43.304;24.344;2022-07-29T04:37:44;100278.78;;;24.61;75.08
12781;BME280;6454;43.304;24.344;2022-07-29T04:40:11;100281.63;;;24.68;74.17
12781;BME280;6454;43.304;24.344;2022-07-29T04:42:38;100279.41;;;24.77;73.63
12781;BME280;6454;43.304;24.344;2022-07-29T04:45:06;100279.53;;;24.88;73.15
12781;BME280;6454;43.304;24.344;2022-07-29T04:47:34;100269.69;;;24.94;72.94
12781;BME280;6454;43.304;24.344;2022-07-29T04:50:02;100259.41;;;24.94;72.18
12781;BME280;6454;43.304;24.344;2022-07-29T04:52:29;100271.03;;;25.07;72.19
12781;BME280;6454;43.304;24.344;2022-07-29T04:54:56;100284.22;;;25.17;71.23
12781;BME280;6454;43.304;24.344;2022-07-29T04:57:23;100274.34;;;25.23;71.24
12781;BME280;6454;43.304;24.344;2022-07-29T04:59:49;100276.03;;;25.31;71.04
12781;BME280;6454;43.304;24.344;2022-07-29T05:02:16;100281.16;;;25.29;70.72
12781;BME280;6454;43.304;24.344;2022-07-29T05:04:45;100275.56;;;25.26;71.09
12781;BME280;6454;43.304;24.344;2022-07-29T05:07:11;100281.91;;;25.26;71.30
12781;BME280;6454;43.304;24.344;2022-07-29T05:09:39;100285.44;;;25.20;71.78
12781;BME280;6454;43.304;24.344;2022-07-29T05:12:06;100294.22;;;25.25;71.91
12781;BME280;6454;43.304;24.344;2022-07-29T05:14:33;100292.63;;;25.24;71.27
12781;BME280;6454;43.304;24.344;2022-07-29T05:17:00;100293.03;;;25.26;69.97
12781;BME280;6454;43.304;24.344;2022-07-29T05:19:27;100293.03;;;25.26;70.30
12781;BME280;6454;43.304;24.344;2022-07-29T05:21:55;100296.16;;;25.21;70.40
12781;BME280;6454;43.304;24.344;2022-07-29T05:24:22;100304.81;;;25.16;70.47
12781;BME280;6454;43.304;24.344;2022-07-29T05:26:49;100308.06;;;25.22;70.01
12781;BME280;6454;43.304;24.344;2022-07-29T05:29:16;100303.66;;;25.17;70.69
12781;BME280;6454;43.304;24.344;2022-07-29T05:31:43;100302.84;;;25.17;71.10
12781;BME280;6454;43.304;24.344;2022-07-29T05:34:10;100308.88;;;25.22;71.33
12781;BME280;6454;43.304;24.344;2022-07-29T05:36:37;100308.53;;;25.27;71.66
12781;BME280;6454;43.304;24.344;2022-07-29T05:39:05;100310.56;;;25.34;70.54
12781;BME280;6454;43.304;24.344;2022-07-29T05:41:32;100314.16;;;25.34;70.96
12781;BME280;6454;43.304;24.344;2022-07-29T05:43:59;100312.94;;;25.35;70.47
12781;BME280;6454;43.304;24.344;2022-07-29T05:46:26;100323.84;;;25.47;69.53
12781;BME280;6454;43.304;24.344;2022-07-29T05:48:52;100327.09;;;25.56;69.08
12781;BME280;6454;43.304;24.344;2022-07-29T05:51:19;100327.13;;;25.60;68.73
12781;BME280;6454;43.304;24.344;2022-07-29T05:53:46;100320.78;;;25.59;68.46
12781;BME280;6454;43.304;24.344;2022-07-29T05:56:15;100324.00;;;25.65;67.88
12781;BME280;6454;43.304;24.344;2022-07-29T05:58:41;100331.19;;;25.70;68.22
12781;BME280;6454;43.304;24.344;2022-07-29T06:01:08;100331.63;;;25.75;68.03
12781;BME280;6454;43.304;24.344;2022-07-29T06:03:35;100321.28;;;25.72;67.85
12781;BME280;6454;43.304;24.344;2022-07-29T06:06:03;100335.25;;;25.83;67.90
12781;BME280;6454;43.304;24.344;2022-07-29T06:08:31;100332.09;;;25.88;68.62
12781;BME280;6454;43.304;24.344;2022-07-29T06:10:59;100337.34;;;25.96;67.97
12781;BME280;6454;43.304;24.344;2022-07-29T06:13:27;100336.59;;;26.03;67.99
12781;BME280;6454;43.304;24.344;2022-07-29T06:15:54;100332.59;;;26.00;67.05
12781;BME280;6454;43.304;24.344;2022-07-29T06:18:21;100343.81;;;26.11;67.17
12781;BME280;6454;43.304;24.344;2022-07-29T06:20:49;100346.66;;;26.18;67.59
12781;BME280;6454;43.304;24.344;2022-07-29T06:23:16;100339.91;;;26.15;67.24
12781;BME280;6454;43.304;24.344;2022-07-29T06:25:45;100326.00;;;26.15;66.72
12781;BME280;6454;43.304;24.344;2022-07-29T06:28:14;100338.84;;;26.38;66.16
12781;BME280;6454;43.304;24.344;2022-07-29T06:30:42;100343.72;;;26.51;66.26
12781;BME280;6454;43.304;24.344;2022-07-29T06:33:09;100334.97;;;26.53;65.31
12781;BME280;6454;43.304;24.344;2022-07-29T06:35:36;100339.44;;;26.64;65.26
12781;BME280;6454;43.304;24.344;2022-07-29T06:38:04;100340.22;;;26.68;64.60
12781;BME280;6454;43.304;24.344;2022-07-29T06:40:31;100347.41;;;26.73;64.84
12781;BME280;6454;43.304;24.344;2022-07-29T06:43:15;100339.09;;;26.76;64.15
12781;BME280;6454;43.304;24.344;2022-07-29T06:45:44;100343.56;;;26.92;63.90
12781;BME280;6454;43.304;24.344;2022-07-29T06:48:10;100337.59;;;27.00;63.38
12781;BME280;6454;43.304;24.344;2022-07-29T06:50:37;100334.03;;;27.00;63.58
12781;BME280;6454;43.304;24.344;2022-07-29T06:53:05;100336.44;;;27.05;63.17
12781;BME280;6454;43.304;24.344;2022-07-29T06:55:32;100343.66;;;27.20;61.88
12781;BME280;6454;43.304;24.344;2022-07-29T06:57:58;100344.44;;;27.27;61.41
12781;BME280;6454;43.304;24.344;2022-07-29T07:00:25;100343.69;;;27.34;61.16
12781;BME280;6454;43.304;24.344;2022-07-29T07:02:54;100340.94;;;27.41;61.41
12781;BME280;6454;43.304;24.344;2022-07-29T07:05:21;100339.34;;;27.40;60.79
12781;BME280;6454;43.304;24.344;2022-07-29T07:07:48;100336.16;;;27.45;60.78
12781;BME280;6454;43.304;24.344;2022-07-29T07:10:14;100338.56;;;27.50;60.96
12781;BME280;6454;43.304;24.344;2022-07-29T07:12:41;100330.59;;;27.48;60.59
12781;BME280;6454;43.304;24.344;2022-07-29T07:15:09;100331.00;;;27.47;61.09
12781;BME280;6454;43.304;24.344;2022-07-29T07:17:36;100324.25;;;27.52;60.95
12781;BME280;6454;43.304;24.344;2022-07-29T07:20:06;100326.22;;;27.47;60.67
12781;BME280;6454;43.304;24.344;2022-07-29T07:22:33;100321.84;;;27.54;60.20
12781;BME280;6454;43.304;24.344;2022-07-29T07:25:00;100325.44;;;27.51;60.64
12781;BME280;6454;43.304;24.344;2022-07-29T07:27:27;100328.22;;;27.58;60.27
12781;BME280;6454;43.304;24.344;2022-07-29T07:29:55;100329.03;;;27.62;60.08
12781;BME280;6454;43.304;24.344;2022-07-29T07:32:22;100324.25;;;27.59;60.39
12781;BME280;6454;43.304;24.344;2022-07-29T07:34:49;100320.28;;;27.56;60.72
12781;BME280;6454;43.304;24.344;2022-07-29T07:37:17;100324.25;;;27.62;60.81
12781;BME280;6454;43.304;24.344;2022-07-29T07:39:45;100320.28;;;27.63;59.63
12781;BME280;6454;43.304;24.344;2022-07-29T07:42:12;100321.84;;;27.68;59.80
12781;BME280;6454;43.304;24.344;2022-07-29T07:44:39;100309.91;;;27.60;59.94
12781;BME280;6454;43.304;24.344;2022-07-29T07:47:06;100324.66;;;27.78;60.13
12781;BME280;6454;43.304;24.344;2022-07-29T07:49:32;100323.84;;;27.88;60.09
12781;BME280;6454;43.304;24.344;2022-07-29T07:51:59;100317.47;;;27.95;59.31
12781;BME280;6454;43.304;24.344;2022-07-29T07:54:27;100324.66;;;28.10;58.79
12781;BME280;6454;43.304;24.344;2022-07-29T07:56:54;100325.03;;;28.23;58.87
12781;BME280;6454;43.304;24.344;2022-07-29T07:59:21;100329.00;;;28.43;58.36
12781;BME280;6454;43.304;24.344;2022-07-29T08:01:48;100328.56;;;28.65;57.99
12781;BME280;6454;43.304;24.344;2022-07-29T08:04:15;100326.53;;;28.73;56.86
12781;BME280;6454;43.304;24.344;2022-07-29T08:06:42;100329.75;;;28.64;56.56
12781;BME280;6454;43.304;24.344;2022-07-29T08:09:09;100329.38;;;28.66;56.38
12781;BME280;6454;43.304;24.344;2022-07-29T08:11:37;100331.75;;;28.71;56.41
12781;BME280;6454;43.304;24.344;2022-07-29T08:14:04;100330.53;;;28.79;55.87
12781;BME280;6454;43.304;24.344;2022-07-29T08:16:31;100331.66;;;28.85;56.63
12781;BME280;6454;43.304;24.344;2022-07-29T08:18:58;100328.84;;;28.99;55.47
12781;BME280;6454;43.304;24.344;2022-07-29T08:21:25;100319.19;;;29.07;54.90
12781;BME280;6454;43.304;24.344;2022-07-29T08:23:52;100321.16;;;29.21;54.83
12781;BME280;6454;43.304;24.344;2022-07-29T08:26:40;100315.16;;;29.26;53.92
12781;BME280;6454;43.304;24.344;2022-07-29T08:29:07;100317.47;;;29.34;54.62
12781;BME280;6454;43.304;24.344;2022-07-29T08:31:34;100312.66;;;29.39;54.24
12781;BME280;6454;43.304;24.344;2022-07-29T08:34:01;100307.81;;;29.46;53.86
12781;BME280;6454;43.304;24.344;2022-07-29T08:36:28;100307.28;;;29.62;53.96
12781;BME280;6454;43.304;24.344;2022-07-29T08:38:56;100294.53;;;29.61;52.97
12781;BME280;6454;43.304;24.344;2022-07-29T08:41:23;100295.28;;;29.68;53.87
12781;BME280;6454;43.304;24.344;2022-07-29T08:43:51;100291.56;;;29.82;52.86
12781;BME280;6454;43.304;24.344;2022-07-29T08:46:19;100275.56;;;29.86;52.46
12781;BME280;6454;43.304;24.344;2022-07-29T08:48:46;100299.72;;;30.10;52.02
12781;BME280;6454;43.304;24.344;2022-07-29T08:51:14;100297.97;;;30.23;51.00
12781;BME280;6454;43.304;24.344;2022-07-29T08:53:43;100287.88;;;30.36;51.82
12781;BME280;6454;43.304;24.344;2022-07-29T08:56:11;100298.94;;;30.47;51.72
12781;BME280;6454;43.304;24.344;2022-07-29T08:58:39;100286.91;;;30.50;51.86
12781;BME280;6454;43.304;24.344;2022-07-29T09:01:08;100290.34;;;30.65;51.25
12781;BME280;6454;43.304;24.344;2022-07-29T09:03:37;100285.78;;;30.78;49.84
12781;BME280;6454;43.304;24.344;2022-07-29T09:06:06;100284.09;;;30.84;49.14
12781;BME280;6454;43.304;24.344;2022-07-29T09:08:33;100277.63;;;30.90;47.86
12781;BME280;6454;43.304;24.344;2022-07-29T09:11:01;100279.44;;;31.04;49.12
12781;BME280;6454;43.304;24.344;2022-07-29T09:13:28;100288.06;;;31.16;48.88
12781;BME280;6454;43.304;24.344;2022-07-29T09:15:55;100277.38;;;31.08;47.51
12781;BME280;6454;43.304;24.344;2022-07-29T09:18:35;100290.94;;;31.13;48.53
12781;BME280;6454;43.304;24.344;2022-07-29T09:21:03;100272.00;;;31.20;47.15
12781;BME280;6454;43.304;24.344;2022-07-29T09:24:05;100256.13;;;31.10;48.70
12781;BME280;6454;43.304;24.344;2022-07-29T09:26:35;100246.34;;;31.22;48.41
12781;BME280;6454;43.304;24.344;2022-07-29T09:29:08;100268.88;;;31.15;48.09
12781;BME280;6454;43.304;24.344;2022-07-29T09:31:38;100262.53;;;31.11;48.08
12781;BME280;6454;43.304;24.344;2022-07-29T09:34:08;100259.25;;;31.16;48.03
12781;BME280;6454;43.304;24.344;2022-07-29T09:36:43;100267.56;;;31.23;48.65
12781;BME280;6454;43.304;24.344;2022-07-29T09:39:10;100270.41;;;31.19;47.60
12781;BME280;6454;43.304;24.344;2022-07-29T09:41:48;100260.13;;;31.09;48.27
12781;BME280;6454;43.304;24.344;2022-07-29T09:44:15;100262.53;;;31.11;47.75
12781;BME280;6454;43.304;24.344;2022-07-29T09:46:57;100262.91;;;31.13;47.47
12781;BME280;6454;43.304;24.344;2022-07-29T09:49:29;100270.03;;;31.17;47.16
12781;BME280;6454;43.304;24.344;2022-07-29T09:52:00;100261.03;;;31.30;46.74
12781;BME280;6454;43.304;24.344;2022-07-29T09:54:29;100256.03;;;31.44;46.56
12781;BME280;6454;43.304;24.344;2022-07-29T09:57:02;100256.28;;;31.53;47.00
12781;BME280;6454;43.304;24.344;2022-07-29T09:59:29;100247.63;;;31.67;46.95
12781;BME280;6454;43.304;24.344;2022-07-29T10:01:56;100238.59;;;31.79;45.78
12781;BME280;6454;43.304;24.344;2022-07-29T10:04:23;100251.28;;;31.88;45.35
12781;BME280;6454;43.304;24.344;2022-07-29T10:06:59;100249.09;;;31.99;44.77
12781;BME280;6454;43.304;24.344;2022-07-29T10:09:27;100248.78;;;31.93;44.66
12781;BME280;6454;43.304;24.344;2022-07-29T10:12:05;100245.44;;;32.02;45.32
12781;BME280;6454;43.304;24.344;2022-07-29T10:14:32;100239.56;;;32.16;44.48
12781;BME280;6454;43.304;24.344;2022-07-29T10:17:00;100232.00;;;32.13;44.55
12781;BME280;6454;43.304;24.344;2022-07-29T10:19:28;100241.88;;;32.21;44.03
12781;BME280;6454;43.304;24.344;2022-07-29T10:21:58;100241.38;;;32.26;44.19
12781;BME280;6454;43.304;24.344;2022-07-29T10:24:26;100241.78;;;32.44;44.51
12781;BME280;6454;43.304;24.344;2022-07-29T10:26:55;100239.94;;;32.57;42.73
12781;BME280;6454;43.304;24.344;2022-07-29T10:29:22;100232.72;;;32.56;41.57
12781;BME280;6454;43.304;24.344;2022-07-29T10:32:13;100226.09;;;32.66;41.34
12781;BME280;6454;43.304;24.344;2022-07-29T10:38:06;100218.19;;;32.61;42.92
12781;BME280;6454;43.304;24.344;2022-07-29T10:40:41;100214.78;;;32.50;43.27
12781;BME280;6454;43.304;24.344;2022-07-29T10:43:30;100213.19;;;32.49;43.40
12781;BME280;6454;43.304;24.344;2022-07-29T10:45:59;100194.06;;;32.64;43.32
12781;BME280;6454;43.304;24.344;2022-07-29T10:48:27;100195.28;;;32.63;42.08
12781;BME280;6454;43.304;24.344;2022-07-29T10:50:55;100199.44;;;32.74;42.01
12781;BME280;6454;43.304;24.344;2022-07-29T10:53:45;100197.59;;;32.68;41.70
12781;BME280;6454;43.304;24.344;2022-07-29T10:56:23;100188.19;;;32.74;41.86
12781;BME280;6454;43.304;24.344;2022-07-29T10:59:25;100179.97;;;32.83;42.19
12781;BME280;6454;43.304;24.344;2022-07-29T11:01:53;100184.97;;;32.92;41.62
12781;BME280;6454;43.304;24.344;2022-07-29T11:04:59;100186.41;;;33.00;41.45
12781;BME280;6454;43.304;24.344;2022-07-29T11:07:27;100180.63;;;33.07;41.52
12781;BME280;6454;43.304;24.344;2022-07-29T11:10:21;100176.78;;;33.17;40.55
12781;BME280;6454;43.304;24.344;2022-07-29T11:12:48;100172.47;;;33.13;40.20
12781;BME280;6454;43.304;24.344;2022-07-29T11:15:17;100168.28;;;33.21;40.23
12781;BME280;6454;43.304;24.344;2022-07-29T11:18:08;100158.22;;;33.36;40.86
12781;BME280;6454;43.304;24.344;2022-07-29T11:20:37;100152.50;;;33.39;40.53
12781;BME280;6454;43.304;24.344;2022-07-29T11:23:18;100138.53;;;33.52;40.50
12781;BME280;6454;43.304;24.344;2022-07-29T11:26:13;100148.38;;;33.60;40.23
12781;BME280;6454;43.304;24.344;2022-07-29T11:28:49;100144.31;;;33.61;39.51
12781;BME280;6454;43.304;24.344;2022-07-29T11:31:20;100138.16;;;33.66;39.39
12781;BME280;6454;43.304;24.344;2022-07-29T11:34:16;100143.41;;;33.80;39.45
12781;BME280;6454;43.304;24.344;2022-07-29T11:39:44;100130.66;;;34.04;38.94
12781;BME280;6454;43.304;24.344;2022-07-29T11:42:41;100127.22;;;34.13;38.50
12781;BME280;6454;43.304;24.344;2022-07-29T11:45:10;100121.16;;;34.27;38.99
12781;BME280;6454;43.304;24.344;2022-07-29T11:47:40;100118.78;;;34.25;37.83
12781;BME280;6454;43.304;24.344;2022-07-29T11:50:09;100116.97;;;34.19;37.59
12781;BME280;6454;43.304;24.344;2022-07-29T11:52:38;100110.13;;;34.32;37.08
12781;BME280;6454;43.304;24.344;2022-07-29T11:55:09;100104.03;;;34.34;37.00
12781;BME280;6454;43.304;24.344;2022-07-29T11:57:44;100106.53;;;34.45;37.15
12781;BME280;6454;43.304;24.344;2022-07-29T12:00:21;100107.19;;;34.49;36.41
12781;BME280;6454;43.304;24.344;2022-07-29T12:02:48;100105.97;;;34.50;36.89
12781;BME280;6454;43.304;24.344;2022-07-29T12:05:16;100108.81;;;34.62;36.28
12781;BME280;6454;43.304;24.344;2022-07-29T12:07:44;100098.56;;;34.68;36.94
12781;BME280;6454;43.304;24.344;2022-07-29T12:10:11;100099.69;;;34.71;36.60
12781;BME280;6454;43.304;24.344;2022-07-29T12:12:38;100093.94;;;34.74;36.70
12781;BME280;6454;43.304;24.344;2022-07-29T12:15:17;100085.69;;;34.92;36.41
12781;BME280;6454;43.304;24.344;2022-07-29T12:17:46;100074.75;;;35.07;36.15
12781;BME280;6454;43.304;24.344;2022-07-29T12:20:14;100089.00;;;35.25;35.41
12781;BME280;6454;43.304;24.344;2022-07-29T12:22:48;100082.84;;;35.18;35.52
12781;BME280;6454;43.304;24.344;2022-07-29T12:25:15;100086.31;;;35.22;35.55
12781;BME280;6454;43.304;24.344;2022-07-29T12:27:44;100076.59;;;35.23;35.20
12781;BME280;6454;43.304;24.344;2022-07-29T12:30:13;100061.44;;;35.08;34.45
12781;BME280;6454;43.304;24.344;2022-07-29T12:32:43;100072.22;;;35.22;35.12
12781;BME280;6454;43.304;24.344;2022-07-29T12:35:12;100052.69;;;35.27;35.10
12781;BME280;6454;43.304;24.344;2022-07-29T12:37:41;100062.19;;;35.21;35.01
12781;BME280;6454;43.304;24.344;2022-07-29T12:40:10;100064.88;;;35.24;34.24
12781;BME280;6454;43.304;24.344;2022-07-29T12:42:38;100053.28;;;35.22;34.68
12781;BME280;6454;43.304;24.344;2022-07-29T12:45:06;100050.06;;;35.33;34.79
12781;BME280;6454;43.304;24.344;2022-07-29T12:47:52;100047.66;;;35.44;33.72
12781;BME280;6454;43.304;24.344;2022-07-29T12:50:19;100057.31;;;35.55;33.10
12781;BME280;6454;43.304;24.344;2022-07-29T12:52:46;100045.38;;;35.51;34.14
12781;BME280;6454;43.304;24.344;2022-07-29T12:55:13;100045.13;;;35.24;34.19
12781;BME280;6454;43.304;24.344;2022-07-29T12:57:47;100043.75;;;35.29;34.45
12781;BME280;6454;43.304;24.344;2022-07-29T13:00:16;100035.38;;;35.38;33.84
12781;BME280;6454;43.304;24.344;2022-07-29T13:02:56;100042.09;;;35.53;33.53
12781;BME280;6454;43.304;24.344;2022-07-29T13:05:23;100034.84;;;35.30;32.11
12781;BME280;6454;43.304;24.344;2022-07-29T13:07:50;100033.59;;;35.31;32.68
12781;BME280;6454;43.304;24.344;2022-07-29T13:10:20;100032.09;;;35.39;32.95